PWSweather.com
Personal Weather Stations
Station Observations

OlomoucCZ

Lat: 49.5936202181, Lon: 17.2276005149

Elevation: 752

Station Type: Davis Vantage Pro 2 Activ

http://infopocasi-olomouc.cz

High Low Average
Temperature 38.6°F3.7°C 28.5°F-1.9°C 34.4°F1.3°C
Dew Point 33.4°F0.8°C 24.6°F-4.1°C 30.1°F-1.1°C
Winds 20.7 mph 33.3 kmh 8.1 mph 13.0 kmh 12.0 mph NW19.3 kmh NW
Wind Gusts 31.1 mph50.1 kmh 9.2 mph14.8 kmh 17.0 mph27.4 kmh
Humidity 94% 77% 84%
Pressure 30.20 in1022.7 mb 29.85 in1010.8 mb -
Precipitation 0.00 in0.0 mm - -
Hour Temp Dew Point Humidity Winds Wind Gusts Pressure Precip Precip Rate Daily Precip Total
12:00 AM 38.6°F3.7°C 33.0°F0.6°C 80% 11.5 mph W18.5 kmh W 21.9 mph35.2 kmh 29.88 in1011.9 mb - 0.00 in0.0 mm 0.00 in0.0 mm
12:30 AM 38.1°F3.4°C 33.4°F0.8°C 83% 16.1 mph NW25.9 kmh NW 19.6 mph31.5 kmh 29.89 in1012.2 mb - 0.00 in0.0 mm 0.00 in0.0 mm
01:00 AM 35.2°F1.8°C 32.6°F0.3°C 90% 8.1 mph NW13.0 kmh NW 10.4 mph16.7 kmh 29.88 in1011.9 mb - 0.00 in0.0 mm 0.00 in0.0 mm
01:30 AM 36.7°F2.6°C 32.6°F0.3°C 85% 12.7 mph W20.4 kmh W 16.1 mph25.9 kmh 29.88 in1011.9 mb - 0.00 in0.0 mm 0.00 in0.0 mm
02:00 AM 37.2°F2.9°C 31.9°F-0.1°C 81% 9.2 mph WNW14.8 kmh WNW 19.6 mph31.5 kmh 29.87 in1011.5 mb - 0.00 in0.0 mm 0.00 in0.0 mm
02:30 AM 37.2°F2.9°C 31.0°F-0.6°C 78% 11.5 mph WNW18.5 kmh WNW 16.1 mph25.9 kmh 29.86 in1011.2 mb - 0.00 in0.0 mm 0.00 in0.0 mm
03:00 AM 37.0°F2.8°C 30.5°F-0.8°C 77% 13.8 mph WNW22.2 kmh WNW 19.6 mph31.5 kmh 29.86 in1011.2 mb - 0.00 in0.0 mm 0.00 in0.0 mm
03:30 AM 36.2°F2.3°C 30.9°F-0.6°C 81% 10.4 mph WNW16.7 kmh WNW 13.8 mph22.2 kmh 29.85 in1010.8 mb - 0.00 in0.0 mm 0.00 in0.0 mm
04:00 AM 36.3°F2.4°C 31.0°F-0.6°C 81% 11.5 mph NW18.5 kmh NW 16.1 mph25.9 kmh 29.85 in1010.8 mb - 0.00 in0.0 mm 0.00 in0.0 mm
04:30 AM 36.2°F2.3°C 30.3°F-0.9°C 79% 15.0 mph WNW24.1 kmh WNW 26.5 mph42.6 kmh 29.85 in1010.8 mb - 0.00 in0.0 mm 0.00 in0.0 mm
05:00 AM 35.4°F1.9°C 30.8°F-0.7°C 83% 16.1 mph WNW25.9 kmh WNW 27.6 mph44.4 kmh 29.86 in1011.2 mb - 0.00 in0.0 mm 0.00 in0.0 mm
05:30 AM 35.5°F1.9°C 30.8°F-0.7°C 83% 10.4 mph WNW16.7 kmh WNW 15.0 mph24.1 kmh 29.85 in1010.8 mb - 0.00 in0.0 mm 0.00 in0.0 mm
06:00 AM 36.2°F2.3°C 31.2°F-0.4°C 82% 16.1 mph WNW25.9 kmh WNW 24.2 mph38.9 kmh 29.86 in1011.2 mb - 0.00 in0.0 mm 0.00 in0.0 mm
06:30 AM 35.9°F2.2°C 31.2°F-0.4°C 83% 17.3 mph WNW27.8 kmh WNW 31.1 mph50.1 kmh 29.87 in1011.5 mb - 0.00 in0.0 mm 0.00 in0.0 mm
07:00 AM 36.2°F2.3°C 31.5°F-0.3°C 83% 11.5 mph WNW18.5 kmh WNW 20.7 mph33.3 kmh 29.89 in1012.2 mb - 0.00 in0.0 mm 0.00 in0.0 mm
07:30 AM 36.4°F2.4°C 31.7°F-0.2°C 83% 8.1 mph NW13.0 kmh NW 12.7 mph20.4 kmh 29.91 in1012.9 mb - 0.00 in0.0 mm 0.00 in0.0 mm
08:00 AM 36.1°F2.3°C 31.7°F-0.2°C 84% 12.7 mph WNW20.4 kmh WNW 18.4 mph29.6 kmh 29.92 in1013.2 mb - 0.00 in0.0 mm 0.00 in0.0 mm
08:30 AM 34.8°F1.6°C 31.9°F-0.1°C 89% 8.1 mph NW13.0 kmh NW 9.2 mph14.8 kmh 29.91 in1012.9 mb - 0.00 in0.0 mm 0.00 in0.0 mm
09:00 AM 35.8°F2.1°C 31.7°F-0.2°C 85% 11.5 mph WNW18.5 kmh WNW 19.6 mph31.5 kmh 29.92 in1013.2 mb - 0.00 in0.0 mm 0.00 in0.0 mm
09:30 AM 36.0°F2.2°C 31.9°F-0.1°C 85% 13.8 mph NW22.2 kmh NW 20.7 mph33.3 kmh 29.92 in1013.2 mb - 0.00 in0.0 mm 0.00 in0.0 mm
10:00 AM 35.9°F2.2°C 32.4°F0.2°C 87% 11.5 mph NW18.5 kmh NW 11.5 mph18.5 kmh 29.92 in1013.2 mb - 0.00 in0.0 mm 0.00 in0.0 mm
10:30 AM 36.3°F2.4°C 32.8°F0.4°C 87% 8.1 mph NW13.0 kmh NW 11.5 mph18.5 kmh 29.92 in1013.2 mb - 0.00 in0.0 mm 0.00 in0.0 mm
11:00 AM 37.4°F3.0°C 32.7°F0.4°C 83% 20.7 mph WNW33.3 kmh WNW 23.0 mph37.0 kmh 29.92 in1013.2 mb - 0.00 in0.0 mm 0.00 in0.0 mm
11:30 AM 36.6°F2.6°C 32.2°F0.1°C 84% 15.0 mph NW24.1 kmh NW 19.6 mph31.5 kmh 29.93 in1013.5 mb - 0.00 in0.0 mm 0.00 in0.0 mm
12:00 PM 36.0°F2.2°C 32.5°F0.3°C 87% 10.4 mph NW16.7 kmh NW 17.3 mph27.8 kmh 29.93 in1013.5 mb - 0.00 in0.0 mm 0.00 in0.0 mm
12:30 PM 34.4°F1.3°C 32.4°F0.2°C 92% 12.7 mph WNW20.4 kmh WNW 17.3 mph27.8 kmh 29.94 in1013.9 mb - 0.00 in0.0 mm 0.00 in0.0 mm
01:00 PM 34.1°F1.2°C 32.6°F0.3°C 94% 9.2 mph WNW14.8 kmh WNW 11.5 mph18.5 kmh 29.95 in1014.2 mb - 0.00 in0.0 mm 0.00 in0.0 mm
01:30 PM 34.6°F1.4°C 33.1°F0.6°C 94% 11.5 mph NW18.5 kmh NW 12.7 mph20.4 kmh 29.96 in1014.6 mb - 0.00 in0.0 mm 0.00 in0.0 mm
02:00 PM 35.8°F2.1°C 32.3°F0.2°C 87% 12.7 mph NW20.4 kmh NW 13.8 mph22.2 kmh 29.98 in1015.2 mb - 0.00 in0.0 mm 0.00 in0.0 mm
02:30 PM 35.9°F2.2°C 31.0°F-0.6°C 82% 13.8 mph WNW22.2 kmh WNW 21.9 mph35.2 kmh 30.00 in1015.9 mb - 0.00 in0.0 mm 0.00 in0.0 mm
03:00 PM 35.3°F1.8°C 30.6°F-0.8°C 83% 11.5 mph WNW18.5 kmh WNW 17.3 mph27.8 kmh 30.02 in1016.6 mb - 0.00 in0.0 mm 0.00 in0.0 mm
03:30 PM 35.0°F1.7°C 30.4°F-0.9°C 83% 10.4 mph WNW16.7 kmh WNW 18.4 mph29.6 kmh 30.03 in1016.9 mb - 0.00 in0.0 mm 0.00 in0.0 mm
04:00 PM 34.8°F1.6°C 29.8°F-1.2°C 82% 15.0 mph WNW24.1 kmh WNW 18.4 mph29.6 kmh 30.05 in1017.6 mb - 0.00 in0.0 mm 0.00 in0.0 mm
04:30 PM 34.2°F1.2°C 29.3°F-1.5°C 82% 11.5 mph WNW18.5 kmh WNW 19.6 mph31.5 kmh 30.07 in1018.3 mb - 0.00 in0.0 mm 0.00 in0.0 mm
05:00 PM 33.7°F0.9°C 29.1°F-1.6°C 83% 9.2 mph NW14.8 kmh NW 11.5 mph18.5 kmh 30.09 in1019.0 mb - 0.00 in0.0 mm 0.00 in0.0 mm
05:30 PM 33.1°F0.6°C 29.1°F-1.6°C 85% 12.7 mph NW20.4 kmh NW 18.4 mph29.6 kmh 30.11 in1019.6 mb - 0.00 in0.0 mm 0.00 in0.0 mm
06:00 PM 32.9°F0.5°C 28.0°F-2.2°C 82% 12.7 mph WNW20.4 kmh WNW 18.4 mph29.6 kmh 30.12 in1020.0 mb - 0.00 in0.0 mm 0.00 in0.0 mm
06:30 PM 32.0°F0.0°C 28.3°F-2.1°C 86% 18.4 mph NW29.6 kmh NW 23.0 mph37.0 kmh 30.14 in1020.7 mb - 0.00 in0.0 mm 0.00 in0.0 mm
07:00 PM 30.6°F-0.8°C 28.0°F-2.2°C 90% 10.4 mph NW16.7 kmh NW 11.5 mph18.5 kmh 30.16 in1021.3 mb - 0.00 in0.0 mm 0.00 in0.0 mm
07:30 PM 30.3°F-0.9°C 27.2°F-2.7°C 88% 9.2 mph NW14.8 kmh NW 10.4 mph16.7 kmh 30.16 in1021.3 mb - 0.00 in0.0 mm 0.00 in0.0 mm
08:00 PM 31.2°F-0.4°C 25.4°F-3.7°C 79% 15.0 mph NW24.1 kmh NW 23.0 mph37.0 kmh 30.18 in1022.0 mb - 0.00 in0.0 mm 0.00 in0.0 mm
08:30 PM 30.3°F-0.9°C 24.9°F-3.9°C 80% 12.7 mph NW20.4 kmh NW 11.5 mph18.5 kmh 30.18 in1022.0 mb - 0.00 in0.0 mm 0.00 in0.0 mm
09:00 PM 29.7°F-1.3°C 25.7°F-3.5°C 85% 12.7 mph WNW20.4 kmh WNW 17.3 mph27.8 kmh 30.19 in1022.4 mb - 0.00 in0.0 mm 0.00 in0.0 mm
09:30 PM 29.6°F-1.3°C 25.6°F-3.6°C 85% 11.5 mph WNW18.5 kmh WNW 15.0 mph24.1 kmh 30.19 in1022.4 mb - 0.00 in0.0 mm 0.00 in0.0 mm
10:00 PM 29.1°F-1.6°C 25.4°F-3.7°C 86% 11.5 mph WNW18.5 kmh WNW 16.1 mph25.9 kmh 30.20 in1022.7 mb - 0.00 in0.0 mm 0.00 in0.0 mm
10:30 PM 29.4°F-1.4°C 24.9°F-3.9°C 83% 13.8 mph WNW22.2 kmh WNW 16.1 mph25.9 kmh 30.20 in1022.7 mb - 0.00 in0.0 mm 0.00 in0.0 mm
11:00 PM 28.7°F-1.8°C 24.8°F-4.0°C 85% 11.5 mph WNW18.5 kmh WNW 16.1 mph25.9 kmh 30.20 in1022.7 mb - 0.00 in0.0 mm 0.00 in0.0 mm
11:30 PM 28.5°F-1.9°C 24.6°F-4.1°C 85% 9.2 mph WNW14.8 kmh WNW 11.5 mph18.5 kmh 30.20 in1022.7 mb - 0.00 in0.0 mm 0.00 in0.0 mm